world map with HKKI marked

HKKI - Airport

This information may not be accurate or current and is not valid for navigation or flight planning. No warranty of fitness for any purpose is made or implied.

flag of Kenya

Donate via PayPal

Additional information is available on the NEW Great Circle Mapper

Location
City:  Kisumu, Kenya
ICAO / IATA:HKKI / KIS

Details
Type:Airport (Aerodrome, Airfield)
Use:Public/Civil
Latitude:0°05'10"S (-0.086138)
Longitude:34°43'44"E (34.728892)
Datum:WGS 1984
Elevation:3796 ft (1157 m)
Runways:1
Longest:6511 × 98 ft (1985 × 30 m)

Time
Timezone:UTC+3 (DST+5)
Local Time:

Weather
METAR:HKKI  041400Z 25013KT 9999 FEW030CB 33/16 Q1010
TAF:HKKI  041100Z 0412/0512 24010KT 9999 FEW030 BECMG 0500/0506 24005KT CAVOK BECMG 0508/0511 24015KT 9999 FEW030

Related Locations
Nearby:
Farthest:NHV: 11732 mi / 18881 km
Nuku Hiva, Marquesas Islands, PF

Find:

   beyond  
but within

Other Information
Maps:
Sources:

  


 


Great Circle Mapper   Great Circle Mapper
Great Circle Mapper FAQ   Great Circle Mapper FAQ
  Karl's Home Page
KLSē   KLSē Home
   GC on Facebook
Airlines of the World   Airlines of the World
Donate via PayPal


Copyright © 2004-2019, Karl L. Swartz. All rights reserved.
All trademarks mentioned herein belong to their respective owners.

Please see credits for attribution and copyright information.

Karl Swartz <karl@kls2.com>
  Powered by FreeBSD
Valid HTML 4.01!
Labeled with ICRA
hCard Microformat
Geo Microformat